Time;durP1;ratioP1;P1;durP2;ratioP2;P2;SDS_P1;SDS_P2;PMS_P1;PMS_P2;Temp;Humidity;BMP_temperature;BMP_pressure;BME280_temperature;BME280_humidity;BME280_pressure;Samples;Min_cycle;Max_cycle;Signal;HPM_P1;HPM_P2
2022/02/06 00:02:24;;;;;;;1999.90;999.90;;;6.40;99.90;;;;;;4976521;28;20421;-72
2022/02/06 00:04:50;;;;;;;1999.90;999.90;;;6.40;99.90;;;;;;4978016;28;20808;-72
2022/02/06 00:07:16;;;;;;;1999.90;999.90;;;6.30;99.90;;;;;;4978213;28;20417;-72
2022/02/06 00:09:45;;;;;;;1999.90;999.90;;;6.30;99.90;;;;;;4978853;28;20424;-73
2022/02/06 00:12:10;;;;;;;1999.90;999.90;;;6.30;99.90;;;;;;4978174;28;20456;-71
2022/02/06 00:14:37;;;;;;;1999.90;999.90;;;6.40;99.90;;;;;;4974085;28;20434;-72
2022/02/06 00:17:03;;;;;;;1999.90;999.90;;;6.50;99.90;;;;;;4974381;28;20170;-72
2022/02/06 00:19:28;;;;;;;1999.90;999.90;;;6.50;99.90;;;;;;4974358;28;20414;-72
2022/02/06 00:21:54;;;;;;;1999.90;999.90;;;6.60;99.90;;;;;;4974210;28;20413;-72
2022/02/06 00:24:29;;;;;;;1999.90;999.90;;;6.70;99.90;;;;;;4973939;28;20681;-72
2022/02/06 00:27:06;;;;;;;1999.90;999.90;;;6.80;99.90;;;;;;4974037;28;20173;-72
2022/02/06 00:29:45;;;;;;;1999.90;999.90;;;6.80;99.90;;;;;;4974017;28;20428;-72
2022/02/06 00:32:24;;;;;;;1999.90;999.90;;;6.90;99.90;;;;;;4974002;28;20466;-72
2022/02/06 00:35:16;;;;;;;1999.90;999.90;;;6.90;99.90;;;;;;4973992;28;20421;-72
2022/02/06 00:40:20;;;;;;;1999.90;999.90;;;7.00;99.90;;;;;;4973852;28;20452;-72
2022/02/06 00:42:46;;;;;;;1999.90;999.90;;;7.10;99.90;;;;;;4973838;28;20761;-72
2022/02/06 00:45:12;;;;;;;1999.90;999.90;;;7.20;99.90;;;;;;4973549;28;20445;-72
2022/02/06 00:47:39;;;;;;;1999.90;999.90;;;7.20;99.90;;;;;;4973731;28;20590;-72
2022/02/06 00:50:06;;;;;;;1999.90;999.90;;;7.20;99.90;;;;;;4973720;28;20175;-71
2022/02/06 00:52:38;;;;;;;1999.90;999.90;;;7.20;99.90;;;;;;4973543;28;20457;-71
2022/02/06 00:55:05;;;;;;;1999.90;999.90;;;7.30;99.90;;;;;;4973498;28;20902;-71
2022/02/06 00:57:30;;;;;;;1999.90;999.90;;;7.30;99.90;;;;;;4973606;28;20413;-72
2022/02/06 00:59:56;;;;;;;1999.90;999.90;;;7.30;99.90;;;;;;4973664;28;20782;-72
2022/02/06 01:02:22;;;;;;;1999.90;999.90;;;7.40;99.90;;;;;;4973329;28;20254;-72
2022/02/06 01:04:48;;;;;;;1999.90;999.90;;;7.40;99.90;;;;;;4973497;28;20198;-72
2022/02/06 01:07:13;;;;;;;1999.90;999.90;;;7.40;99.90;;;;;;4973455;28;20428;-71
2022/02/06 01:09:39;;;;;;;1999.90;999.90;;;7.40;99.90;;;;;;4973539;28;20174;-72
2022/02/06 01:12:05;;;;;;;1999.90;999.90;;;7.50;99.90;;;;;;4973439;28;20260;-72
2022/02/06 01:17:27;;;;;;;1999.90;999.90;;;7.50;99.90;;;;;;4973583;28;20413;-72
2022/02/06 01:22:27;;;;;;;1999.90;999.90;;;7.60;99.90;;;;;;4973714;28;20477;-72
2022/02/06 01:25:02;;;;;;;1999.90;999.90;;;7.50;99.90;;;;;;4973128;28;20537;-72
2022/02/06 01:27:42;;;;;;;1999.90;999.90;;;7.60;99.90;;;;;;4988421;28;20408;-72
2022/02/06 01:30:17;;;;;;;1999.90;999.90;;;7.60;99.90;;;;;;4973433;28;20445;-72
2022/02/06 01:32:51;;;;;;;1999.90;999.90;;;7.70;99.90;;;;;;4973349;28;20451;-72
2022/02/06 01:35:25;;;;;;;1999.90;999.90;;;7.60;99.90;;;;;;4973195;28;20433;-72
2022/02/06 01:38:07;;;;;;;1999.90;999.90;;;7.70;99.90;;;;;;4973299;28;20544;-72
2022/02/06 01:40:57;;;;;;;1999.90;999.90;;;7.70;99.90;;;;;;4973103;28;20405;-72
2022/02/06 01:43:28;;;;;;;1999.90;999.90;;;7.70;99.90;;;;;;4973159;28;20418;-72
2022/02/06 02:10:12;;;;;;;1999.90;999.90;;;7.80;99.90;;;;;;4972859;28;20370;-72
2022/02/06 02:18:10;;;;;;;1999.90;999.90;;;7.90;99.90;;;;;;4976266;28;20417;-72
2022/02/06 02:26:22;;;;;;;1999.90;999.90;;;8.00;99.90;;;;;;4975937;28;20268;-72
2022/02/06 02:29:30;;;;;;;1999.90;999.90;;;8.00;99.90;;;;;;4976110;28;20501;-72
2022/02/06 02:45:26;;;;;;;1999.90;999.90;;;8.00;99.90;;;;;;4975955;28;20428;-72
2022/02/06 02:48:00;;;;;;;1999.90;999.90;;;8.00;99.90;;;;;;4976037;28;20464;-73
2022/02/06 02:50:26;;;;;;;1999.90;999.90;;;8.00;99.90;;;;;;4975967;28;20402;-72
2022/02/06 02:58:43;;;;;;;1999.90;999.90;;;8.10;99.90;;;;;;4967468;28;20492;-72
2022/02/06 03:03:40;;;;;;;1999.90;999.90;;;7.90;99.90;;;;;;4975611;28;20493;-73
2022/02/06 03:06:07;;;;;;;1999.90;999.90;;;7.90;99.90;;;;;;4975226;28;20425;-73
2022/02/06 03:08:35;;;;;;;1999.90;999.90;;;7.80;99.90;;;;;;4975512;28;20445;-72
2022/02/06 03:11:06;;;;;;;1999.90;999.90;;;7.70;99.90;;;;;;4975448;28;20416;-72
2022/02/06 03:13:56;;;;;;;1999.90;999.90;;;7.70;99.90;;;;;;4975343;28;20552;-72
2022/02/06 03:16:24;;;;;;;1999.90;999.90;;;7.50;99.90;;;;;;4975190;28;20963;-72
2022/02/06 03:21:30;;;;;;;1999.90;999.90;;;7.40;99.90;;;;;;4975204;28;20408;-72
2022/02/06 03:24:10;;;;;;;1999.90;999.90;;;7.30;99.90;;;;;;4975080;28;20398;-72
2022/02/06 03:26:36;;;;;;;1999.90;999.90;;;7.30;99.90;;;;;;4974990;28;20830;-72
2022/02/06 03:29:02;;;;;;;1999.90;999.90;;;7.20;99.90;;;;;;4975211;28;20496;-72
2022/02/06 03:31:28;;;;;;;1999.90;999.90;;;7.20;99.90;;;;;;4975013;28;20410;-72
2022/02/06 03:33:54;;;;;;;1999.90;999.90;;;7.10;99.90;;;;;;4974901;28;20201;-71
2022/02/06 03:36:20;;;;;;;1999.90;999.90;;;7.00;99.90;;;;;;4974702;28;20457;-71
2022/02/06 03:38:48;;;;;;;1999.90;999.90;;;6.90;99.90;;;;;;4974825;28;20663;-71
2022/02/06 03:41:15;;;;;;;1999.90;999.90;;;6.80;99.90;;;;;;4974675;28;20402;-70
2022/02/06 03:46:17;;;;;;;1999.90;999.90;;;6.80;99.90;;;;;;4974782;28;20430;-70
2022/02/06 03:51:17;;;;;;;1999.90;999.90;;;6.80;99.90;;;;;;4974551;28;20561;-70
2022/02/06 03:53:45;;;;;;;1999.90;999.90;;;6.70;99.90;;;;;;4974562;28;20178;-70
2022/02/06 03:56:11;;;;;;;1999.90;999.90;;;6.70;99.90;;;;;;4974238;28;20791;-70
2022/02/06 03:58:37;;;;;;;1999.90;999.90;;;6.70;99.90;;;;;;4974587;28;20394;-70
2022/02/06 04:01:03;;;;;;;1999.90;999.90;;;6.70;99.90;;;;;;4974420;28;20402;-70
2022/02/06 04:03:29;;;;;;;1999.90;999.90;;;6.70;99.90;;;;;;4974455;28;20225;-70
2022/02/06 04:05:54;;;;;;;1999.90;999.90;;;6.80;99.90;;;;;;4974023;28;20422;-70
2022/02/06 04:08:21;;;;;;;1999.90;999.90;;;6.80;99.90;;;;;;4974317;28;20178;-71
2022/02/06 04:10:50;;;;;;;1999.90;999.90;;;6.80;99.90;;;;;;4974304;28;20256;-71
2022/02/06 04:13:20;;;;;;;1999.90;999.90;;;6.80;99.90;;;;;;4973442;28;20465;-71
2022/02/06 04:15:50;;;;;;;1999.90;999.90;;;6.90;99.90;;;;;;4973877;28;20919;-71
2022/02/06 04:18:24;;;;;;;1999.90;999.90;;;6.90;99.90;;;;;;4974130;28;20413;-71
2022/02/06 04:20:49;;;;;;;1999.90;999.90;;;6.90;99.90;;;;;;4974181;28;20405;-70
2022/02/06 04:23:15;;;;;;;1999.90;999.90;;;7.00;99.90;;;;;;4974059;28;20465;-70
2022/02/06 04:25:40;;;;;;;1999.90;999.90;;;7.00;99.90;;;;;;4973676;28;20564;-70
2022/02/06 04:28:06;;;;;;;1999.90;999.90;;;7.00;99.90;;;;;;4973931;28;20229;-71
2022/02/06 04:30:32;;;;;;;1999.90;999.90;;;7.00;99.90;;;;;;4973927;28;20221;-71
2022/02/06 04:32:57;;;;;;;1999.90;999.90;;;7.00;99.90;;;;;;4973861;28;20293;-71
2022/02/06 04:35:29;;;;;;;1999.90;999.90;;;7.10;99.90;;;;;;4973599;28;20201;-71
2022/02/06 04:48:54;;;;;;;1999.90;999.90;;;7.10;99.90;;;;;;4973730;28;20436;-70
2022/02/06 04:54:25;;;;;;;1999.90;999.90;;;7.10;99.90;;;;;;4973488;28;20540;-71
2022/02/06 05:16:35;;;;;;;1999.90;999.90;;;7.00;99.90;;;;;;4960979;28;20839;-70
2022/02/06 05:22:08;;;;;;;1999.90;999.90;;;6.90;99.90;;;;;;4973329;28;20413;-70
2022/02/06 05:27:33;;;;;;;1999.90;999.90;;;7.00;99.90;;;;;;4973216;28;20961;-70
2022/02/06 05:30:04;;;;;;;1999.90;999.90;;;7.00;99.90;;;;;;4973315;28;20476;-70
2022/02/06 05:32:39;;;;;;;1999.90;999.90;;;7.00;99.90;;;;;;4973051;28;20461;-70
2022/02/06 05:35:07;;;;;;;1999.90;999.90;;;7.00;99.90;;;;;;4972899;28;20417;-70
2022/02/06 05:37:33;;;;;;;1999.90;999.90;;;7.00;99.90;;;;;;4972914;28;20810;-70
2022/02/06 05:39:59;;;;;;;1999.90;999.90;;;7.00;99.90;;;;;;4973144;28;20750;-71
2022/02/06 05:42:25;;;;;;;1999.90;999.90;;;7.00;99.90;;;;;;4973068;28;20413;-71
2022/02/06 05:44:55;;;;;;;1999.90;999.90;;;7.10;99.90;;;;;;4972666;28;20650;-70
2022/02/06 05:47:27;;;;;;;1999.90;999.90;;;7.20;99.90;;;;;;4972884;28;20790;-70
2022/02/06 05:49:53;;;;;;;1999.90;999.90;;;7.20;99.90;;;;;;4975675;28;20822;-71
2022/02/06 05:52:20;;;;;;;1999.90;999.90;;;7.20;99.90;;;;;;4976709;28;20484;-70
2022/02/06 05:54:46;;;;;;;1999.90;999.90;;;7.10;99.90;;;;;;4976911;28;20426;-70
2022/02/06 05:57:12;;;;;;;1999.90;999.90;;;7.10;99.90;;;;;;4991691;28;20414;-70
2022/02/06 05:59:37;;;;;;;1999.90;999.90;;;7.10;99.90;;;;;;4976751;28;20405;-70
2022/02/06 06:02:03;;;;;;;1999.90;999.90;;;7.10;99.90;;;;;;4977015;28;20174;-70
2022/02/06 06:04:29;;;;;;;1999.90;999.90;;;7.10;99.90;;;;;;4976177;28;20213;-70
2022/02/06 06:06:54;;;;;;;1999.90;999.90;;;7.00;99.90;;;;;;4976550;28;20987;-71
2022/02/06 06:09:20;;;;;;;1999.90;999.90;;;7.00;99.90;;;;;;4976455;28;20663;-70
2022/02/06 06:11:46;;;;;;;1999.90;999.90;;;7.00;99.90;;;;;;4976428;28;20221;-70
2022/02/06 06:14:11;;;;;;;1999.90;999.90;;;6.90;99.90;;;;;;4975982;28;20209;-70
2022/02/06 06:16:37;;;;;;;1999.90;999.90;;;6.90;99.90;;;;;;4976359;28;20181;-70
2022/02/06 06:19:04;;;;;;;1999.90;999.90;;;6.90;99.90;;;;;;4976295;28;20177;-70
2022/02/06 06:21:36;;;;;;;1999.90;999.90;;;6.90;99.90;;;;;;4976220;28;20580;-71
2022/02/06 06:24:02;;;;;;;1999.90;999.90;;;6.90;99.90;;;;;;4975925;28;20413;-71
2022/02/06 06:26:33;;;;;;;1999.90;999.90;;;7.00;99.90;;;;;;4976129;28;20406;-70
2022/02/06 06:28:58;;;;;;;1999.90;999.90;;;7.00;99.90;;;;;;4976173;28;20409;-70
2022/02/06 06:31:26;;;;;;;1999.90;999.90;;;7.00;99.90;;;;;;4975991;28;20745;-71
2022/02/06 06:33:51;;;;;;;1999.90;999.90;;;7.00;99.90;;;;;;4976032;28;20261;-71
2022/02/06 06:36:20;;;;;;;1999.90;999.90;;;7.00;99.90;;;;;;4975734;28;20496;-70
2022/02/06 06:38:46;;;;;;;1999.90;999.90;;;7.00;99.90;;;;;;4976011;28;20166;-71
2022/02/06 06:41:12;;;;;;;1999.90;999.90;;;7.10;99.90;;;;;;4975842;28;20857;-71
2022/02/06 06:43:37;;;;;;;1999.90;999.90;;;7.20;99.90;;;;;;4975796;28;20541;-71
2022/02/06 06:46:03;;;;;;;1999.90;999.90;;;7.10;99.90;;;;;;4975477;28;20205;-71
2022/02/06 06:48:28;;;;;;;1999.90;999.90;;;7.20;99.90;;;;;;4975731;28;20695;-71
2022/02/06 06:50:54;;;;;;;1999.90;999.90;;;7.20;99.90;;;;;;4975741;28;20248;-71
2022/02/06 06:53:21;;;;;;;1999.90;999.90;;;7.20;99.90;;;;;;4975581;28;20202;-71
2022/02/06 06:55:54;;;;;;;1999.90;999.90;;;7.20;99.90;;;;;;4975265;28;20477;-71
2022/02/06 06:58:27;;;;;;;1999.90;999.90;;;7.30;99.90;;;;;;4975657;28;20410;-70
2022/02/06 07:01:08;;;;;;;1999.90;999.90;;;7.30;99.90;;;;;;4975014;28;20405;-71
2022/02/06 07:03:35;;;;;;;1999.90;999.90;;;7.30;99.90;;;;;;4975662;28;20508;-71
2022/02/06 07:06:01;;;;;;;1999.90;999.90;;;7.30;99.90;;;;;;4975194;28;20457;-71
2022/02/06 07:08:27;;;;;;;1999.90;999.90;;;7.30;99.90;;;;;;4975495;28;20405;-71
2022/02/06 07:10:53;;;;;;;1999.90;999.90;;;7.30;99.90;;;;;;4975454;28;20422;-71
2022/02/06 07:13:22;;;;;;;1999.90;999.90;;;7.30;99.90;;;;;;4975456;28;20256;-71
2022/02/06 07:15:48;;;;;;;1999.90;999.90;;;7.30;99.90;;;;;;4974973;28;20458;-71
2022/02/06 07:18:14;;;;;;;1999.90;999.90;;;7.30;99.90;;;;;;4975333;28;20409;-70
2022/02/06 07:20:40;;;;;;;1999.90;999.90;;;7.20;99.90;;;;;;4975262;28;20413;-71
2022/02/06 07:23:08;;;;;;;1999.90;999.90;;;7.30;99.90;;;;;;4975211;28;20635;-70
2022/02/06 07:25:35;;;;;;;1999.90;999.90;;;7.30;99.90;;;;;;4974805;28;20194;-70
2022/02/06 07:28:00;;;;;;;1999.90;999.90;;;7.20;99.90;;;;;;4975130;28;20508;-70
2022/02/06 07:30:26;;;;;;;1999.90;999.90;;;7.20;99.90;;;;;;4975032;28;20898;-71
2022/02/06 07:32:52;;;;;;;1999.90;999.90;;;7.20;99.90;;;;;;4974968;28;20245;-71
2022/02/06 07:35:18;;;;;;;1999.90;999.90;;;7.20;99.90;;;;;;4974585;28;20428;-71
2022/02/06 07:37:55;;;;;;;1999.90;999.90;;;7.20;99.90;;;;;;4974936;28;20433;-71
2022/02/06 07:40:21;;;;;;;1999.90;999.90;;;7.20;99.90;;;;;;4974932;28;20492;-71
2022/02/06 07:42:46;;;;;;;1999.90;999.90;;;7.20;99.90;;;;;;4974841;28;20410;-70
2022/02/06 07:45:13;;;;;;;1999.90;999.90;;;7.20;99.90;;;;;;4974362;28;20433;-70
2022/02/06 07:47:42;;;;;;;1999.90;999.90;;;7.20;99.90;;;;;;4974605;28;20178;-71
2022/02/06 07:50:08;;;;;;;1999.90;999.90;;;7.20;99.90;;;;;;4974677;28;20413;-71
2022/02/06 07:52:34;;;;;;;1999.90;999.90;;;7.10;99.90;;;;;;4974616;28;20967;-71
2022/02/06 07:55:00;;;;;;;1999.90;999.90;;;7.20;99.90;;;;;;4974679;28;20481;-71
2022/02/06 07:57:26;;;;;;;1999.90;999.90;;;7.20;99.90;;;;;;4975003;28;20406;-72
2022/02/06 07:59:52;;;;;;;1999.90;999.90;;;7.20;99.90;;;;;;4974835;28;20922;-71
2022/02/06 08:02:18;;;;;;;1999.90;999.90;;;7.20;99.90;;;;;;4989793;28;20422;-72
2022/02/06 08:04:46;;;;;;;1999.90;999.90;;;7.20;99.90;;;;;;4974721;28;20578;-71
2022/02/06 08:07:13;;;;;;;1999.90;999.90;;;7.20;99.90;;;;;;4974919;28;20444;-72
2022/02/06 08:09:49;;;;;;;1999.90;999.90;;;7.20;99.90;;;;;;4974674;28;20471;-72
2022/02/06 08:12:16;;;;;;;1999.90;999.90;;;7.30;99.90;;;;;;4973847;28;20835;-71
2022/02/06 08:14:51;;;;;;;1999.90;999.90;;;7.20;99.90;;;;;;4974411;28;20426;-71
2022/02/06 08:17:18;;;;;;;1999.90;999.90;;;7.30;99.90;;;;;;4974921;28;20402;-71
2022/02/06 08:19:44;;;;;;;1999.90;999.90;;;7.20;99.90;;;;;;4974948;28;20413;-71
2022/02/06 08:22:10;;;;;;;1999.90;999.90;;;7.30;99.90;;;;;;4974752;28;20459;-70
2022/02/06 08:24:36;;;;;;;1999.90;999.90;;;7.30;99.90;;;;;;4974734;28;20294;-71
2022/02/06 08:27:02;;;;;;;1999.90;999.90;;;7.30;99.90;;;;;;4975059;28;20896;-71
2022/02/06 08:29:27;;;;;;;1999.90;999.90;;;7.30;99.90;;;;;;4975109;28;20229;-71
2022/02/06 08:31:53;;;;;;;1999.90;999.90;;;7.40;99.90;;;;;;4975242;28;20483;-70
2022/02/06 08:34:19;;;;;;;1999.90;999.90;;;7.30;99.90;;;;;;4974955;28;20747;-71
2022/02/06 08:36:45;;;;;;;1999.90;999.90;;;7.30;99.90;;;;;;4975371;28;20238;-71
2022/02/06 08:39:10;;;;;;;1999.90;999.90;;;7.30;99.90;;;;;;4974736;28;20505;-71
2022/02/06 08:41:36;;;;;;;1999.90;999.90;;;7.30;99.90;;;;;;4974791;28;20245;-71
2022/02/06 08:44:03;;;;;;;1999.90;999.90;;;7.20;99.90;;;;;;4974418;28;20224;-71
2022/02/06 08:46:29;;;;;;;1999.90;999.90;;;7.30;99.90;;;;;;4975232;28;20221;-70
2022/02/06 08:48:55;;;;;;;1999.90;999.90;;;7.30;99.90;;;;;;4975117;28;20429;-71
2022/02/06 08:51:21;;;;;;;1999.90;999.90;;;7.40;99.90;;;;;;4975439;28;20223;-70
2022/02/06 08:53:47;;;;;;;1999.90;999.90;;;7.40;99.90;;;;;;4975098;28;20453;-71
2022/02/06 08:56:13;;;;;;;1999.90;999.90;;;7.30;99.90;;;;;;4974741;28;20495;-70
2022/02/06 08:58:39;;;;;;;1999.90;999.90;;;7.30;99.90;;;;;;4974385;28;20413;-70
2022/02/06 09:01:05;;;;;;;1999.90;999.90;;;7.30;99.90;;;;;;4974492;28;20418;-70
2022/02/06 09:03:31;;;;;;;1999.90;999.90;;;7.30;99.90;;;;;;4974278;28;20923;-70
2022/02/06 09:05:57;;;;;;;1999.90;999.90;;;7.30;99.90;;;;;;4973944;28;20508;-69
2022/02/06 09:08:22;;;;;;;1999.90;999.90;;;7.30;99.90;;;;;;4974729;28;20421;-70
2022/02/06 09:10:48;;;;;;;1999.90;999.90;;;7.30;99.90;;;;;;4974704;28;20174;-70
2022/02/06 09:13:15;;;;;;;1999.90;999.90;;;7.30;99.90;;;;;;4973833;28;20237;-70
2022/02/06 09:15:40;;;;;;;1999.90;999.90;;;7.30;99.90;;;;;;4973702;28;20509;-70
2022/02/06 09:18:07;;;;;;;1999.90;999.90;;;7.30;99.90;;;;;;4974026;28;20425;-70
2022/02/06 09:20:32;;;;;;;1999.90;999.90;;;7.30;99.90;;;;;;4974456;28;20182;-70
2022/02/06 09:23:00;;;;;;;1999.90;999.90;;;7.30;99.90;;;;;;4973882;28;20421;-70
2022/02/06 09:25:26;;;;;;;1999.90;999.90;;;7.20;99.90;;;;;;4973667;28;20198;-70
2022/02/06 09:27:51;;;;;;;1999.90;999.90;;;7.20;99.90;;;;;;4973935;28;20437;-70
2022/02/06 09:30:21;;;;;;;1999.90;999.90;;;7.30;99.90;;;;;;4973689;28;20406;-70
2022/02/06 09:35:12;;;;;;;1999.90;999.90;;;7.20;99.90;;;;;;4973940;28;20430;-70
2022/02/06 09:37:38;;;;;;;1999.90;999.90;;;7.20;99.90;;;;;;4974398;28;20200;-70
2022/02/06 09:40:10;;;;;;;1999.90;999.90;;;7.20;99.90;;;;;;4974795;28;20402;-70
2022/02/06 09:42:37;;;;;;;1999.90;999.90;;;7.20;99.90;;;;;;4974943;28;20397;-70
2022/02/06 09:45:03;;;;;;;1999.90;999.90;;;7.20;99.90;;;;;;4974567;28;20961;-70
2022/02/06 09:47:31;;;;;;;1999.90;999.90;;;7.20;99.90;;;;;;4974860;28;20428;-71
2022/02/06 09:49:57;;;;;;;1999.90;999.90;;;7.20;99.90;;;;;;4975155;28;20867;-71
2022/02/06 09:52:25;;;;;;;1999.90;999.90;;;7.30;99.90;;;;;;4973781;28;20453;-71
2022/02/06 09:54:56;;;;;;;1999.90;999.90;;;7.20;99.90;;;;;;4974106;28;20426;-71
2022/02/06 09:57:30;;;;;;;1999.90;999.90;;;7.20;99.90;;;;;;4974631;28;20476;-71
2022/02/06 09:59:58;;;;;;;1999.90;999.90;;;7.20;99.90;;;;;;4974391;28;20472;-71
2022/02/06 10:02:27;;;;;;;1999.90;999.90;;;7.20;99.90;;;;;;4974441;28;20405;-72
2022/02/06 10:04:54;;;;;;;1999.90;999.90;;;7.20;99.90;;;;;;4974050;28;20457;-71
2022/02/06 10:07:29;;;;;;;1999.90;999.90;;;7.20;99.90;;;;;;4973657;28;20418;-72
2022/02/06 10:10:03;;;;;;;1999.90;999.90;;;7.20;99.90;;;;;;4973643;28;20444;-72
2022/02/06 10:12:36;;;;;;;1999.90;999.90;;;7.20;99.90;;;;;;4974191;28;20453;-72
2022/02/06 10:15:01;;;;;;;1999.90;999.90;;;7.20;99.90;;;;;;4974476;28;20512;-72
2022/02/06 10:17:27;;;;;;;1999.90;999.90;;;7.20;99.90;;;;;;4989001;28;20453;-72
2022/02/06 10:19:55;;;;;;;1999.90;999.90;;;7.10;99.90;;;;;;4967715;28;20426;-72
2022/02/06 10:22:24;;;;;;;1999.90;999.90;;;7.20;99.90;;;;;;4966047;28;20170;-72
2022/02/06 10:25:03;;;;;;;1999.90;999.90;;;7.20;99.90;;;;;;4964127;28;20456;-73
2022/02/06 10:27:54;;;;;;;1999.90;999.90;;;7.20;99.90;;;;;;4963508;28;21045;-73
2022/02/06 10:30:41;;;;;;;1999.90;999.90;;;7.20;99.90;;;;;;4959664;28;20410;-73
2022/02/06 10:33:33;;;;;;;1999.90;999.90;;;7.20;99.90;;;;;;4954112;29;20469;-74
2022/02/06 10:35:59;;;;;;;1999.90;999.90;;;7.20;99.90;;;;;;4949631;28;20446;-73
2022/02/06 10:38:29;;;;;;;1999.90;999.90;;;7.20;99.90;;;;;;4957718;29;21085;-74
2022/02/06 10:41:07;;;;;;;1999.90;999.90;;;7.20;99.90;;;;;;4957668;28;20255;-73
2022/02/06 10:43:34;;;;;;;1999.90;999.90;;;7.20;99.90;;;;;;4957553;29;20468;-73
2022/02/06 10:46:05;;;;;;;1999.90;999.90;;;7.20;99.90;;;;;;4956985;28;20517;-74
2022/02/06 10:48:31;;;;;;;1999.90;999.90;;;7.30;99.90;;;;;;4957236;29;20963;-74
2022/02/06 10:50:57;;;;;;;1999.90;999.90;;;7.20;99.90;;;;;;4957003;28;20411;-75
2022/02/06 10:53:23;;;;;;;1999.90;999.90;;;7.20;99.90;;;;;;4956807;29;20585;-74
2022/02/06 10:55:58;;;;;;;1999.90;999.90;;;7.20;99.90;;;;;;4956311;29;20202;-74
2022/02/06 10:58:32;;;;;;;1999.90;999.90;;;7.20;99.90;;;;;;4971277;28;20166;-74
2022/02/06 11:01:05;;;;;;;1999.90;999.90;;;7.20;99.90;;;;;;4956452;28;20403;-75
2022/02/06 11:03:39;;;;;;;1999.90;999.90;;;7.20;99.90;;;;;;4956484;28;21048;-74
2022/02/06 11:06:23;;;;;;;1999.90;999.90;;;7.20;99.90;;;;;;4956065;29;20909;-75
2022/02/06 11:08:50;;;;;;;1999.90;999.90;;;7.20;99.90;;;;;;4956290;28;20399;-77
2022/02/06 11:11:15;;;;;;;1999.90;999.90;;;7.20;99.90;;;;;;4956813;28;20450;-77
2022/02/06 11:13:41;;;;;;;1999.90;999.90;;;7.10;99.90;;;;;;4959450;29;20569;-77
2022/02/06 11:16:17;;;;;;;1999.90;999.90;;;7.10;99.90;;;;;;4975612;28;20199;-79
2022/02/06 11:18:51;;;;;;;1999.90;999.90;;;7.10;99.90;;;;;;4964666;28;20177;-79
2022/02/06 11:21:22;;;;;;;1999.90;999.90;;;7.10;99.90;;;;;;4964335;28;20407;-78
2022/02/06 11:23:53;;;;;;;1999.90;999.90;;;7.10;99.90;;;;;;4962786;28;20430;-79
2022/02/06 11:26:22;;;;;;;1999.90;999.90;;;7.10;99.90;;;;;;4960438;28;20418;-78
2022/02/06 11:28:48;;;;;;;1999.90;999.90;;;7.10;99.90;;;;;;4956190;28;20777;-78
2022/02/06 11:31:16;;;;;;;1999.90;999.90;;;7.10;99.90;;;;;;4956007;28;20465;-77
2022/02/06 11:33:42;;;;;;;1999.90;999.90;;;7.10;99.90;;;;;;4963004;28;20457;-79
2022/02/06 11:36:20;;;;;;;1999.90;999.90;;;7.10;99.90;;;;;;4975079;28;20517;-78
2022/02/06 11:44:51;;;;;;;1999.90;999.90;;;7.20;99.90;;;;;;4977731;28;20843;-78
2022/02/06 11:47:27;;;;;;;1999.90;999.90;;;7.20;99.90;;;;;;4962579;28;20428;-78
2022/02/06 11:49:56;;;;;;;1999.90;999.90;;;7.20;99.90;;;;;;4991744;28;20449;-77
2022/02/06 11:52:22;;;;;;;1999.90;999.90;;;7.20;99.90;;;;;;4977443;28;20492;-78
2022/02/06 12:02:36;;;;;;;1999.90;999.90;;;7.30;99.90;;;;;;5333079;22;20495;-76
2022/02/06 12:05:17;;;;;;;1999.90;999.90;;;7.30;99.90;;;;;;4992418;28;20479;-77
2022/02/06 12:07:52;;;;;;;1999.90;999.90;;;7.40;99.90;;;;;;4993972;28;20401;-77
2022/02/06 12:10:22;;;;;;;1999.90;999.90;;;7.40;99.90;;;;;;4987537;28;20432;-78
2022/02/06 12:13:12;;;;;;;1999.90;999.90;;;7.40;99.90;;;;;;4996885;28;20449;-78
2022/02/06 12:19:51;;;;;;;;;;;;;;;;;;;;;
2022/02/06 12:37:38;;;;;;;1999.90;999.90;;;7.90;99.90;;;;;;4982290;28;20485;-81
2022/02/06 12:40:06;;;;;;;1999.90;999.90;;;8.00;99.90;;;;;;4980559;28;20410;-81
2022/02/06 12:43:06;;;;;;;1999.90;999.90;;;8.10;99.90;;;;;;4980172;28;20430;-81
2022/02/06 12:46:36;;;;;;;1999.90;999.90;;;8.20;99.90;;;;;;4961499;28;20833;-79
2022/02/06 12:50:02;;;;;;;1999.90;999.90;;;8.40;99.90;;;;;;4909323;29;20984;-81
2022/02/06 12:52:36;;;;;;;1999.90;999.90;;;8.50;99.90;;;;;;4947580;28;21211;-81
2022/02/06 12:55:26;;;;;;;1999.90;999.90;;;8.70;99.90;;;;;;4976881;28;20434;-80
2022/02/06 12:57:53;;;;;;;1999.90;999.90;;;8.70;99.90;;;;;;4977784;28;20418;-80
2022/02/06 13:00:39;;;;;;;1999.90;999.90;;;8.80;99.90;;;;;;4981887;28;20419;-81
2022/02/06 13:03:34;;;;;;;1999.90;999.90;;;8.90;99.90;;;;;;4981771;28;20459;-80
2022/02/06 13:06:15;;;;;;;1999.90;999.90;;;9.00;99.90;;;;;;4984050;28;20444;-79
2022/02/06 13:08:53;;;;;;;1999.90;999.90;;;9.00;99.90;;;;;;4986122;28;20446;-79
2022/02/06 13:11:29;;;;;;;1999.90;999.90;;;9.30;99.90;;;;;;4984245;28;20422;-80
2022/02/06 13:22:40;;;;;;;1999.90;999.90;;;8.70;99.90;;;;;;4971937;28;20872;-81
2022/02/06 13:28:24;;;;;;;1999.90;999.90;;;8.20;99.90;;;;;;4985365;28;20394;-83
2022/02/06 13:38:50;;;;;;;1999.90;999.90;;;6.90;99.90;;;;;;4979053;28;20597;-82
2022/02/06 13:41:18;;;;;;;1999.90;999.90;;;6.80;99.90;;;;;;4977747;28;20395;-82
2022/02/06 13:43:44;;;;;;;1999.90;999.90;;;6.60;99.90;;;;;;4976457;28;20428;-78
2022/02/06 13:51:55;;;;;;;1999.90;999.90;;;6.60;99.90;;;;;;5147306;22;20487;-78
2022/02/06 13:57:09;;;;;;;1999.90;999.90;;;6.50;99.90;;;;;;4992335;28;20372;-76
2022/02/06 13:59:42;;;;;;;1999.90;999.90;;;7.00;99.90;;;;;;4991883;28;20459;-76
2022/02/06 14:02:10;;;;;;;1999.90;999.90;;;6.40;99.90;;;;;;4991936;28;20412;-76
2022/02/06 14:04:39;;;;;;;1999.90;999.90;;;6.40;99.90;;;;;;4990965;28;20424;-76
2022/02/06 14:07:17;;;;;;;1999.90;999.90;;;6.40;99.90;;;;;;4991512;28;20404;-76
2022/02/06 14:12:16;;;;;;;1999.90;999.90;;;6.30;99.90;;;;;;4994414;28;20514;-75
2022/02/06 14:14:57;;;;;;;1999.90;999.90;;;6.40;99.90;;;;;;4995157;28;20428;-75
2022/02/06 14:17:48;;;;;;;1999.90;999.90;;;6.40;99.90;;;;;;4995397;28;20381;-75
2022/02/06 14:20:23;;;;;;;1999.90;999.90;;;6.40;99.90;;;;;;4993807;28;20413;-75
2022/02/06 14:22:53;;;;;;;1999.90;999.90;;;6.40;99.90;;;;;;4995424;28;20775;-75
2022/02/06 14:25:33;;;;;;;1999.90;999.90;;;6.40;99.90;;;;;;4994540;28;20449;-75
2022/02/06 14:28:15;;;;;;;1999.90;999.90;;;6.50;99.90;;;;;;5003120;28;20470;-75
2022/02/06 14:30:42;;;;;;;1999.90;999.90;;;6.40;99.90;;;;;;5014611;28;20990;-75
2022/02/06 14:33:11;;;;;;;1999.90;999.90;;;6.40;99.90;;;;;;5014335;28;20447;-75
2022/02/06 14:36:05;;;;;;;1999.90;999.90;;;6.40;99.90;;;;;;5014232;28;20913;-75
2022/02/06 14:38:42;;;;;;;1999.90;999.90;;;6.40;99.90;;;;;;5009156;28;20478;-75
2022/02/06 14:43:58;;;;;;;1999.90;999.90;;;6.40;99.90;;;;;;5014673;28;20407;-76
2022/02/06 14:46:26;;;;;;;1999.90;999.90;;;6.40;99.90;;;;;;5014168;28;20466;-75
2022/02/06 14:48:52;;;;;;;1999.90;999.90;;;6.40;99.90;;;;;;5013570;28;20863;-76
2022/02/06 14:51:18;;;;;;;1999.90;999.90;;;6.30;99.90;;;;;;5014371;28;20431;-75
2022/02/06 14:53:44;;;;;;;1999.90;999.90;;;6.40;99.90;;;;;;5014237;28;20200;-75
2022/02/06 14:56:12;;;;;;;1999.90;999.90;;;6.50;99.90;;;;;;5013488;28;20474;-75
2022/02/06 14:58:38;;;;;;;1999.90;999.90;;;6.50;99.90;;;;;;5014420;28;20404;-76
2022/02/06 15:01:03;;;;;;;1999.90;999.90;;;6.50;99.90;;;;;;5014309;28;20876;-76
2022/02/06 15:03:29;;;;;;;1999.90;999.90;;;6.60;99.90;;;;;;5013682;28;20499;-76
2022/02/06 15:05:55;;;;;;;1999.90;999.90;;;6.60;99.90;;;;;;5013543;28;20197;-76
2022/02/06 15:08:21;;;;;;;1999.90;999.90;;;6.60;99.90;;;;;;5013949;28;20176;-76
2022/02/06 15:10:48;;;;;;;1999.90;999.90;;;6.70;99.90;;;;;;5013390;28;20184;-76
2022/02/06 15:13:14;;;;;;;1999.90;999.90;;;6.70;99.90;;;;;;5014029;28;20459;-76
2022/02/06 15:15:48;;;;;;;1999.90;999.90;;;6.70;99.90;;;;;;5013493;28;20439;-76
2022/02/06 15:20:53;;;;;;;1999.90;999.90;;;6.70;99.90;;;;;;5014151;28;20404;-76
2022/02/06 15:23:20;;;;;;;1999.90;999.90;;;6.70;99.90;;;;;;5013516;28;20422;-75
2022/02/06 15:25:46;;;;;;;1999.90;999.90;;;6.60;99.90;;;;;;5012914;28;20941;-76
2022/02/06 15:28:12;;;;;;;1999.90;999.90;;;6.50;99.90;;;;;;5013337;28;20408;-76